Terminal Aerodrome Forecast
Issued by NWS

Home | Current Version | Previous Version | Text Only | Print | Product List | Glossary On
Versions: 1 2 3 4 5 6 7 8 9 10 11 12 13 14 15 16
000
FTUS44 KBMX 241258 AAB
TAFEET
TAF AMD
KEET 241258Z 2413/2512 11010KT P6SM BKN015
     FM241500 13011KT P6SM SCT020 BKN040
     FM250100 15009KT P6SM OVC100
     FM250600 16010KT P6SM OVC007=

USA.gov is the U.S. government's official web portal to all federal, state and local government web resources and services.